KSUE/SUE METAR and TAF weather

Enter ICAO airport designator
Station Type Date Time Source
KSUE METAR 2020/11/25 22:56 UTC NOAA

KSUE 252256Z AUTO 02005KT 10SM OVC013 05/04 A2985 RMK AO2 SLP112 T00500039


Station Type Date Time Source
KSUE Decoded METAR 2020/11/25 22:56 UTC NOAA

Sturgeon Bay, WI, United States (KSUE) 44-51N 087-25W
Nov 25, 2020 - 05:56 PM EST / 2020.11.25 2256 UTC
Wind: from the NNE (020 degrees) at 6 MPH (5 KT):0
Visibility: 10 mile(s):0
Sky conditions: overcast
Temperature: 41.0 F (5.0 C)
Dew Point: 39.0 F (3.9 C)
Relative Humidity: 92%
Pressure (altimeter): 29.85 in. Hg (1010 hPa)
ob: KSUE 252256Z AUTO 02005KT 10SM OVC013 05/04 A2985 RMK AO2 SLP112 T00500039
cycle: 23

Station Type Date Time Source
KSUE TAF UTC NOAA

Error!

Example: see airport list